Time;durP1;ratioP1;P1;durP2;ratioP2;P2;SDS_P1;SDS_P2;PMS_P1;PMS_P2;Temp;Humidity;BMP_temperature;BMP_pressure;BME280_temperature;BME280_humidity;BME280_pressure;Samples;Min_cycle;Max_cycle;Signal;HPM_P1;HPM_P2
2022/07/12 00:01:49;;;;;;;2.15;1.92;;;;;;;18.26;61.96;100695.63;5091045;28;20461;-64
2022/07/12 00:04:16;;;;;;;2.15;1.95;;;;;;;18.23;62.12;100687.84;5090827;28;20055;-66
2022/07/12 00:06:42;;;;;;;6.90;2.47;;;;;;;18.21;62.38;100687.13;5090961;28;20048;-62
2022/07/12 00:09:09;;;;;;;3.28;2.13;;;;;;;18.19;62.12;100686.38;5090555;28;20420;-64
2022/07/12 00:11:36;;;;;;;2.95;2.22;;;;;;;18.16;62.46;100673.31;5090609;28;20484;-63
2022/07/12 00:14:04;;;;;;;2.08;1.88;;;;;;;18.12;62.12;100685.16;5089528;28;20043;-63
2022/07/12 00:16:31;;;;;;;5.55;2.10;;;;;;;18.09;62.15;100684.41;5089393;28;20056;-64
2022/07/12 00:18:58;;;;;;;2.00;1.90;;;;;;;18.05;62.24;100684.75;5090466;28;20535;-65
2022/07/12 00:21:25;;;;;;;1.90;1.80;;;;;;;18.02;61.98;100682.28;5090564;28;20067;-62
2022/07/12 00:23:51;;;;;;;2.75;2.00;;;;;;;17.99;62.07;100680.72;5090483;28;20048;-66
2022/07/12 00:26:18;;;;;;;3.03;2.08;;;;;;;17.95;62.14;100677.41;5091076;28;20052;-63
2022/07/12 00:28:45;;;;;;;2.83;2.00;;;;;;;17.92;62.26;100682.97;5090536;28;20097;-63
2022/07/12 00:31:11;;;;;;;2.20;2.00;;;;;;;17.89;62.19;100683.19;5090498;28;20052;-66
2022/07/12 00:33:38;;;;;;;2.50;2.13;;;;;;;17.86;62.40;100682.56;5090414;28;20051;-64
2022/07/12 00:36:05;;;;;;;3.85;2.30;;;;;;;17.83;62.28;100683.66;5089318;28;20052;-63
2022/07/12 00:38:32;;;;;;;2.85;2.50;;;;;;;17.81;62.37;100686.44;5089091;28;20099;-63
2022/07/12 00:40:59;;;;;;;2.67;2.35;;;;;;;17.79;62.10;100687.50;5089212;28;20073;-63
2022/07/12 00:43:26;;;;;;;2.42;1.90;;;;;;;17.75;62.18;100681.53;5090469;28;20404;-62
2022/07/12 00:45:53;;;;;;;2.72;2.40;;;;;;;17.71;62.15;100680.91;5090243;28;20052;-64
2022/07/12 00:48:19;;;;;;;2.55;2.35;;;;;;;17.70;62.50;100683.69;5090346;28;20075;-62
2022/07/12 00:50:47;;;;;;;2.33;2.13;;;;;;;17.66;62.32;100683.06;5090372;28;20052;-64
2022/07/12 00:53:16;;;;;;;5.28;2.50;;;;;;;17.64;62.45;100674.31;5088973;28;20048;-63
2022/07/12 00:55:43;;;;;;;4.05;2.90;;;;;;;17.62;62.55;100675.38;5089212;28;20056;-64
2022/07/12 00:58:10;;;;;;;4.82;3.13;;;;;;;17.60;62.93;100667.50;5090586;28;20403;-63
2022/07/12 01:00:36;;;;;;;5.93;3.05;;;;;;;17.59;62.98;100665.81;5090203;28;20056;-65
2022/07/12 01:03:03;;;;;;;5.03;2.75;;;;;;;17.57;62.87;100662.44;5089136;28;20059;-63
2022/07/12 01:05:30;;;;;;;5.07;3.10;;;;;;;17.55;62.99;100651.88;5090243;28;20051;-63
2022/07/12 01:07:57;;;;;;;3.03;2.78;;;;;;;17.54;62.99;100652.81;5090284;28;20131;-63
2022/07/12 01:10:24;;;;;;;3.97;3.40;;;;;;;17.53;63.03;100655.63;5088957;28;20780;-63
2022/07/12 01:12:52;;;;;;;5.75;3.25;;;;;;;17.51;63.01;100652.22;5088892;28;20040;-64
2022/07/12 01:15:21;;;;;;;4.75;3.05;;;;;;;17.50;63.48;100650.50;5090042;28;20052;-63
2022/07/12 01:17:48;;;;;;;7.50;3.67;;;;;;;17.50;63.06;100645.19;5090230;28;20070;-63
2022/07/12 01:20:20;;;;;;;4.03;3.03;;;;;;;17.49;63.25;100649.66;5089789;28;20058;-64
2022/07/12 01:22:54;;;;;;;3.55;3.08;;;;;;;17.45;63.40;100648.16;5090171;28;20059;-66
2022/07/12 01:25:21;;;;;;;2.92;2.72;;;;;;;17.47;63.16;100656.91;5090053;28;20048;-62
2022/07/12 01:27:48;;;;;;;3.63;3.20;;;;;;;17.46;63.17;100655.22;5090215;28;20052;-63
2022/07/12 01:30:15;;;;;;;3.30;3.03;;;;;;;17.44;63.14;100641.16;5089971;28;20044;-66
2022/07/12 01:32:42;;;;;;;3.47;3.10;;;;;;;17.43;62.81;100647.44;5091021;28;20048;-63
2022/07/12 01:35:10;;;;;;;3.53;3.17;;;;;;;17.41;62.80;100650.22;5093829;28;20048;-64
2022/07/12 01:37:38;;;;;;;5.97;3.15;;;;;;;17.39;62.98;100653.94;5092522;28;20054;-62
2022/07/12 01:40:07;;;;;;;7.05;3.03;;;;;;;17.36;62.71;100648.84;5092043;28;20059;-64
2022/07/12 01:42:35;;;;;;;5.97;3.65;;;;;;;17.35;62.77;100652.47;5093448;28;20100;-62
2022/07/12 01:45:03;;;;;;;3.97;3.08;;;;;;;17.32;62.56;100657.03;5093370;28;20397;-63
2022/07/12 01:47:31;;;;;;;2.90;2.70;;;;;;;17.29;62.39;100653.75;5092027;28;20055;-63
2022/07/12 01:49:58;;;;;;;3.70;3.40;;;;;;;17.25;62.26;100657.59;5093151;28;20051;-65
2022/07/12 01:52:25;;;;;;;5.13;3.08;;;;;;;17.20;62.54;100668.56;5091883;28;20055;-63
2022/07/12 01:54:53;;;;;;;3.40;3.10;;;;;;;17.16;62.73;100667.91;5093346;28;20055;-64
2022/07/12 01:57:20;;;;;;;4.90;3.08;;;;;;;17.13;62.70;100661.97;5091965;28;20069;-66
2022/07/12 01:59:48;;;;;;;7.45;3.45;;;;;;;17.11;62.94;100670.06;5091613;28;20055;-63
2022/07/12 02:02:15;;;;;;;6.45;3.10;;;;;;;17.08;62.77;100672.09;5093134;28;20130;-63
2022/07/12 02:04:41;;;;;;;3.15;2.85;;;;;;;17.06;62.66;100672.19;5093136;28;20044;-66
2022/07/12 02:07:08;;;;;;;3.40;2.97;;;;;;;17.04;62.86;100671.41;5092954;28;20051;-63
2022/07/12 02:09:35;;;;;;;3.47;2.70;;;;;;;17.02;62.91;100673.34;5092767;28;20052;-63
2022/07/12 02:12:01;;;;;;;5.40;2.90;;;;;;;17.01;62.81;100683.09;5093054;28;20040;-63
2022/07/12 02:14:28;;;;;;;5.13;2.92;;;;;;;16.99;62.86;100679.72;5091435;28;20055;-64
2022/07/12 02:16:55;;;;;;;3.42;3.13;;;;;;;16.96;62.89;100677.25;5092755;28;20393;-64
2022/07/12 02:19:21;;;;;;;3.25;2.50;;;;;;;16.95;62.78;100680.88;5092639;28;20052;-64
2022/07/12 02:21:48;;;;;;;3.33;2.83;;;;;;;16.93;62.85;100686.31;5092940;28;20067;-66
2022/07/12 02:24:14;;;;;;;4.05;2.75;;;;;;;16.92;62.60;100681.94;5092888;28;20442;-64
2022/07/12 02:26:41;;;;;;;3.13;2.83;;;;;;;16.91;62.67;100684.72;5091556;28;20055;-63
2022/07/12 02:29:07;;;;;;;3.10;2.60;;;;;;;16.89;62.76;100695.44;5092244;28;20048;-62
2022/07/12 02:31:34;;;;;;;4.22;3.17;;;;;;;16.87;62.79;100694.72;5091530;28;20048;-66
2022/07/12 02:34:01;;;;;;;7.28;4.00;;;;;;;16.86;63.07;100700.13;5092553;28;20043;-63
2022/07/12 02:36:27;;;;;;;3.83;3.22;;;;;;;16.84;63.36;100699.38;5092626;28;20059;-63
2022/07/12 02:38:54;;;;;;;4.70;3.70;;;;;;;16.84;63.71;100694.06;5092081;28;20044;-64
2022/07/12 02:41:21;;;;;;;6.13;3.95;;;;;;;16.83;63.57;100695.03;5092298;28;20048;-66
2022/07/12 02:43:47;;;;;;;3.75;3.40;;;;;;;16.83;63.75;100695.88;5091538;28;20044;-63
2022/07/12 02:46:14;;;;;;;4.10;3.30;;;;;;;16.83;63.71;100706.53;5092185;28;20046;-65
2022/07/12 02:48:41;;;;;;;4.97;2.80;;;;;;;16.82;63.55;100704.78;5092115;28;20048;-64
2022/07/12 02:51:09;;;;;;;3.15;2.85;;;;;;;16.84;63.22;100702.03;5090871;28;20527;-62
2022/07/12 02:53:36;;;;;;;4.20;2.90;;;;;;;16.83;62.95;100708.31;5092065;28;20070;-62
2022/07/12 02:56:08;;;;;;;3.03;2.80;;;;;;;16.80;62.85;100704.06;5090882;28;20044;-66
2022/07/12 02:58:36;;;;;;;4.57;3.03;;;;;;;16.79;62.78;100710.34;5090520;28;20513;-64
2022/07/12 03:01:04;;;;;;;3.78;3.10;;;;;;;16.75;62.77;100700.88;5092011;28;20838;-62
2022/07/12 03:03:31;;;;;;;5.20;3.33;;;;;;;16.72;62.99;100704.59;5090769;28;20048;-62
2022/07/12 03:05:58;;;;;;;3.90;3.50;;;;;;;16.71;62.94;100712.66;5091492;28;20055;-63
2022/07/12 03:08:24;;;;;;;5.00;3.75;;;;;;;16.67;62.79;100702.22;5091728;28;20056;-62
2022/07/12 03:10:51;;;;;;;3.90;3.22;;;;;;;16.64;62.82;100697.13;5091604;28;20059;-65
2022/07/12 03:13:18;;;;;;;5.35;3.40;;;;;;;16.62;62.89;100700.84;5092059;28;20110;-64
2022/07/12 03:15:49;;;;;;;6.75;3.35;;;;;;;16.60;62.91;100705.41;5091780;28;20044;-62
2022/07/12 03:18:17;;;;;;;5.90;3.83;;;;;;;16.57;63.21;100701.16;5090312;28;20048;-62
2022/07/12 03:20:44;;;;;;;5.82;3.58;;;;;;;16.57;63.15;100702.97;5091684;28;20401;-63
2022/07/12 03:23:10;;;;;;;7.05;3.42;;;;;;;16.55;63.39;100700.41;5091669;28;20062;-62
2022/07/12 03:25:37;;;;;;;5.05;3.58;;;;;;;16.54;63.29;100707.53;5091291;28;20102;-63
2022/07/12 03:28:03;;;;;;;4.47;3.90;;;;;;;16.53;63.31;100708.47;5091543;28;20532;-65
2022/07/12 03:30:30;;;;;;;8.18;3.28;;;;;;;16.51;63.43;100702.41;5091220;28;20051;-62
2022/07/12 03:32:57;;;;;;;4.00;3.70;;;;;;;16.51;63.59;100706.88;5091531;28;20082;-64
2022/07/12 03:35:24;;;;;;;5.88;3.95;;;;;;;16.51;63.52;100706.88;5091291;28;20047;-63
2022/07/12 03:37:52;;;;;;;4.32;3.80;;;;;;;16.50;63.58;100708.69;5091471;28;20052;-62
2022/07/12 03:40:20;;;;;;;6.35;4.18;;;;;;;16.50;63.77;100699.88;5089563;28;20499;-62
2022/07/12 03:42:48;;;;;;;7.03;3.83;;;;;;;16.52;63.68;100703.28;5091162;28;20569;-63
2022/07/12 03:45:16;;;;;;;5.78;3.63;;;;;;;16.52;63.68;100712.09;5091052;28;20151;-63
2022/07/12 03:47:43;;;;;;;4.10;3.67;;;;;;;16.54;63.85;100710.19;5091243;28;20063;-64
2022/07/12 03:50:12;;;;;;;6.25;3.53;;;;;;;16.53;64.15;100708.47;5090807;28;20105;-62
2022/07/12 03:52:41;;;;;;;5.72;3.28;;;;;;;16.54;63.72;100712.84;5091381;28;20048;-62
2022/07/12 03:55:09;;;;;;;5.32;3.33;;;;;;;16.57;63.76;100705.63;5090860;28;20689;-62
2022/07/12 03:57:37;;;;;;;5.00;3.45;;;;;;;16.57;63.73;100710.94;5091005;28;20048;-64
2022/07/12 04:00:11;;;;;;;3.15;2.85;;;;;;;16.56;64.17;100709.25;5089623;28;20063;-64
2022/07/12 04:02:39;;;;;;;4.57;3.45;;;;;;;16.59;64.07;100709.03;5089578;28;20097;-65
2022/07/12 04:05:08;;;;;;;4.38;3.95;;;;;;;16.59;64.27;100715.19;5089448;28;20403;-64
2022/07/12 04:07:35;;;;;;;7.40;5.80;;;;;;;16.62;64.23;100711.47;5090956;28;20484;-63
2022/07/12 04:10:02;;;;;;;9.45;5.93;;;;;;;16.63;64.41;100711.38;5089334;28;20424;-63
2022/07/12 04:12:29;;;;;;;6.38;5.78;;;;;;;16.65;64.35;100711.28;5090880;28;20056;-62
2022/07/12 04:14:56;;;;;;;7.53;5.18;;;;;;;16.68;64.39;100714.56;5090780;28;20528;-62
2022/07/12 04:17:22;;;;;;;6.20;5.07;;;;;;;16.71;64.48;100715.31;5089321;28;20412;-65
2022/07/12 04:19:49;;;;;;;5.57;4.32;;;;;;;16.72;64.40;100717.88;5090692;28;20439;-63
2022/07/12 04:22:15;;;;;;;5.07;4.13;;;;;;;16.75;64.37;100715.00;5090790;28;20052;-63
2022/07/12 04:24:42;;;;;;;6.40;4.13;;;;;;;16.77;64.47;100713.09;5090745;28;20063;-63
2022/07/12 04:27:09;;;;;;;5.80;3.75;;;;;;;16.79;64.42;100710.34;5090613;28;20059;-64
2022/07/12 04:29:35;;;;;;;4.65;4.25;;;;;;;16.82;64.67;100711.94;5090448;28;20044;-62
2022/07/12 04:32:02;;;;;;;5.80;4.55;;;;;;;16.84;64.88;100707.34;5090608;28;20537;-63
2022/07/12 04:34:29;;;;;;;8.93;4.50;;;;;;;16.87;64.88;100707.16;5090757;28;20069;-63
2022/07/12 04:36:55;;;;;;;5.57;4.40;;;;;;;16.90;64.88;100707.78;5090467;28;20580;-62
2022/07/12 04:39:22;;;;;;;4.70;4.20;;;;;;;16.93;65.17;100709.38;5090375;28;20055;-63
2022/07/12 04:41:49;;;;;;;4.72;4.32;;;;;;;16.97;65.50;100716.19;5089287;28;20486;-66
2022/07/12 04:44:16;;;;;;;6.47;4.70;;;;;;;17.01;65.16;100725.66;5090463;28;20684;-64
2022/07/12 04:46:42;;;;;;;5.47;4.18;;;;;;;17.04;65.26;100722.84;5090716;28;20479;-62
2022/07/12 04:49:09;;;;;;;5.13;4.55;;;;;;;17.08;65.20;100718.13;5089154;28;20052;-64
2022/07/12 04:51:36;;;;;;;6.30;4.90;;;;;;;17.11;65.34;100725.91;5090740;28;20054;-63
2022/07/12 04:54:03;;;;;;;4.97;4.22;;;;;;;17.15;65.63;100726.53;5090362;28;20060;-62
2022/07/12 04:56:30;;;;;;;7.28;5.00;;;;;;;17.19;65.69;100722.72;5090372;28;20055;-63
2022/07/12 04:58:56;;;;;;;5.90;5.30;;;;;;;17.23;65.81;100726.88;5089786;28;20055;-64
2022/07/12 05:01:28;;;;;;;6.53;5.90;;;;;;;17.27;66.05;100725.69;5090252;28;20054;-64
2022/07/12 05:03:55;;;;;;;5.50;4.80;;;;;;;17.32;66.07;100728.03;5087726;28;20443;-64
2022/07/12 05:06:22;;;;;;;5.93;5.32;;;;;;;17.35;66.03;100719.84;5089529;28;20052;-65
2022/07/12 05:08:49;;;;;;;5.32;4.82;;;;;;;17.39;65.65;100724.00;5090998;28;20056;-63
2022/07/12 05:11:16;;;;;;;5.57;5.05;;;;;;;17.43;66.06;100725.47;5093411;28;20052;-64
2022/07/12 05:13:43;;;;;;;5.80;5.20;;;;;;;17.48;66.08;100722.50;5093181;28;20411;-65
2022/07/12 05:16:09;;;;;;;7.30;5.78;;;;;;;17.52;66.48;100720.44;5093847;28;20047;-64
2022/07/12 05:18:36;;;;;;;7.35;4.93;;;;;;;17.56;66.40;100721.94;5093649;28;20047;-64
2022/07/12 05:21:03;;;;;;;5.80;5.20;;;;;;;17.61;66.83;100719.81;5092701;28;20051;-64
2022/07/12 05:23:30;;;;;;;7.05;5.22;;;;;;;17.66;67.21;100724.78;5093290;28;20047;-66
2022/07/12 05:25:57;;;;;;;7.88;5.57;;;;;;;17.72;67.28;100729.69;5093049;28;20040;-65
2022/07/12 05:28:24;;;;;;;6.07;4.95;;;;;;;17.77;67.42;100727.56;5092909;28;20137;-63
2022/07/12 05:30:50;;;;;;;5.97;5.38;;;;;;;17.84;67.47;100730.63;5093168;28;20056;-64
2022/07/12 05:33:17;;;;;;;5.32;4.50;;;;;;;17.90;67.25;100732.81;5092959;28;20400;-63
2022/07/12 05:35:43;;;;;;;5.10;4.60;;;;;;;17.96;67.69;100729.75;5093764;28;20044;-64
2022/07/12 05:38:10;;;;;;;6.95;4.78;;;;;;;18.03;67.59;100729.28;5093567;28;20055;-66
2022/07/12 05:40:37;;;;;;;8.02;5.28;;;;;;;18.09;67.52;100743.03;5093094;28;20048;-63
2022/07/12 05:43:03;;;;;;;6.93;5.35;;;;;;;18.16;67.63;100735.44;5093777;28;20048;-63
2022/07/12 05:45:30;;;;;;;6.50;5.20;;;;;;;18.22;67.96;100734.13;5092111;28;20091;-63
2022/07/12 05:47:57;;;;;;;5.82;5.32;;;;;;;18.30;67.82;100733.56;5093602;28;20058;-64
2022/07/12 05:50:23;;;;;;;5.88;4.90;;;;;;;18.36;67.64;100738.44;5093220;28;20048;-63
2022/07/12 05:55:35;;;;;;;4.60;4.20;;;;;;;18.53;67.23;100738.97;5093568;28;20408;-64
2022/07/12 05:58:03;;;;;;;5.75;4.07;;;;;;;18.57;67.28;100732.44;5093376;28;20432;-64
2022/07/12 06:00:29;;;;;;;3.83;3.53;;;;;;;18.62;67.23;100728.47;5092289;28;20095;-63
2022/07/12 06:02:56;;;;;;;4.32;3.72;;;;;;;18.69;67.40;100730.69;5093141;28;20060;-63
2022/07/12 06:05:24;;;;;;;3.95;3.65;;;;;;;18.76;67.25;100734.56;5092920;28;20511;-64
2022/07/12 06:07:50;;;;;;;4.47;3.70;;;;;;;18.82;67.57;100739.47;5093055;28;20404;-63
2022/07/12 06:10:17;;;;;;;5.60;3.47;;;;;;;18.88;67.47;100749.66;5092696;28;20432;-66
2022/07/12 06:12:43;;;;;;;4.80;3.90;;;;;;;18.95;67.11;100749.19;5093347;28;20117;-64
2022/07/12 06:15:10;;;;;;;3.28;2.97;;;;;;;19.01;66.91;100749.56;5093022;28;20147;-63
2022/07/12 06:17:37;;;;;;;4.30;3.55;;;;;;;19.08;66.82;100741.97;5092950;28;20052;-63
2022/07/12 06:20:04;;;;;;;3.55;3.25;;;;;;;19.13;66.81;100747.78;5092200;28;20051;-65
2022/07/12 06:22:30;;;;;;;3.90;3.47;;;;;;;19.19;66.76;100751.81;5093069;28;20052;-63
2022/07/12 06:24:57;;;;;;;4.05;3.60;;;;;;;19.26;66.89;100750.34;5093029;28;20053;-64
2022/07/12 06:27:23;;;;;;;5.15;3.72;;;;;;;19.30;66.72;100750.13;5092284;28;20485;-65
2022/07/12 06:29:51;;;;;;;3.60;3.30;;;;;;;19.35;66.96;100756.81;5091816;28;20662;-62
2022/07/12 06:32:18;;;;;;;6.45;3.63;;;;;;;19.40;66.69;100759.94;5092325;28;20047;-64
2022/07/12 06:34:44;;;;;;;4.85;4.20;;;;;;;19.47;66.67;100764.81;5091246;28;20044;-63
2022/07/12 06:37:12;;;;;;;4.45;4.03;;;;;;;19.51;66.06;100766.28;5092574;28;20481;-62
2022/07/12 06:39:40;;;;;;;3.88;3.45;;;;;;;19.56;65.99;100780.13;5092536;28;20071;-64
2022/07/12 06:42:07;;;;;;;3.88;3.47;;;;;;;19.59;65.88;100773.69;5090966;28;20070;-62
2022/07/12 06:44:34;;;;;;;4.47;3.22;;;;;;;19.62;65.77;100781.47;5091181;28;20055;-64
2022/07/12 06:47:01;;;;;;;5.95;3.45;;;;;;;19.64;65.83;100780.38;5092599;28;20066;-62
2022/07/12 06:49:28;;;;;;;3.35;3.05;;;;;;;19.70;65.78;100791.53;5090735;28;20056;-64
2022/07/12 06:51:54;;;;;;;2.80;2.60;;;;;;;19.71;65.61;100791.41;5092168;28;20127;-63
2022/07/12 06:54:21;;;;;;;3.60;2.60;;;;;;;19.74;65.66;100787.63;5092018;28;20048;-62
2022/07/12 06:56:47;;;;;;;2.97;2.78;;;;;;;19.78;65.34;100786.44;5091956;28;20450;-63
2022/07/12 06:59:14;;;;;;;2.58;2.38;;;;;;;19.79;65.54;100782.78;5091786;28;20067;-65
2022/07/12 07:01:43;;;;;;;3.47;2.70;;;;;;;19.82;65.32;100785.22;5092102;28;20075;-63
2022/07/12 07:04:10;;;;;;;2.60;2.40;;;;;;;19.84;65.29;100782.41;5090684;28;20048;-63
2022/07/12 07:06:36;;;;;;;2.95;2.65;;;;;;;19.87;65.12;100793.69;5091776;28;20446;-63
2022/07/12 07:09:07;;;;;;;3.25;2.28;;;;;;;19.88;65.00;100786.50;5091708;28;20051;-63
2022/07/12 07:11:35;;;;;;;4.68;2.80;;;;;;;19.89;64.76;100796.25;5091966;28;20131;-63
2022/07/12 07:14:03;;;;;;;3.75;2.67;;;;;;;19.90;64.81;100788.13;5090489;28;20060;-62
2022/07/12 07:16:29;;;;;;;3.38;3.08;;;;;;;19.90;64.83;100782.78;5091705;28;20063;-63
2022/07/12 07:18:56;;;;;;;3.50;3.20;;;;;;;19.91;64.22;100779.13;5091716;28;20087;-65
2022/07/12 07:21:24;;;;;;;4.93;3.35;;;;;;;19.92;65.01;100772.78;5090294;28;20445;-63
2022/07/12 07:23:51;;;;;;;3.65;2.88;;;;;;;19.94;65.17;100772.69;5091628;28;20047;-66
2022/07/12 07:26:19;;;;;;;3.13;2.83;;;;;;;19.98;64.93;100773.28;5090495;28;20063;-63
2022/07/12 07:31:34;;;;;;;3.97;2.88;;;;;;;20.03;65.22;100771.09;5090904;28;20155;-64
2022/07/12 07:34:01;;;;;;;2.83;2.63;;;;;;;20.08;65.19;100766.25;5091617;28;20435;-64
2022/07/12 07:36:28;;;;;;;3.38;3.08;;;;;;;20.15;65.26;100774.63;5090000;28;20052;-67
2022/07/12 07:38:54;;;;;;;3.17;2.88;;;;;;;20.20;65.30;100767.06;5091069;28;20048;-63
2022/07/12 07:41:21;;;;;;;2.53;2.33;;;;;;;20.28;65.08;100771.78;5091259;28;20051;-63
2022/07/12 07:43:48;;;;;;;2.50;2.30;;;;;;;20.35;65.37;100764.97;5089879;28;20090;-62
2022/07/12 07:46:14;;;;;;;2.53;2.33;;;;;;;20.47;65.53;100764.91;5090315;28;20048;-62
2022/07/12 07:48:41;;;;;;;3.20;2.90;;;;;;;20.57;64.83;100772.03;5090813;28;20051;-64
2022/07/12 07:51:08;;;;;;;2.85;2.10;;;;;;;20.68;65.12;100772.97;5091168;28;20059;-64
2022/07/12 07:53:34;;;;;;;2.53;2.30;;;;;;;20.79;64.85;100766.72;5090971;28;20097;-64
2022/07/12 07:56:01;;;;;;;2.50;2.30;;;;;;;20.93;64.94;100773.63;5091054;28;20060;-61
2022/07/12 07:58:28;;;;;;;2.92;2.20;;;;;;;21.04;64.56;100767.34;5091276;28;20452;-62
2022/07/12 08:00:54;;;;;;;1.75;1.65;;;;;;;21.15;64.06;100772.63;5091082;28;20056;-61
2022/07/12 08:03:21;;;;;;;1.65;1.55;;;;;;;21.29;64.09;100767.88;5089600;28;20044;-64
2022/07/12 08:05:50;;;;;;;1.92;1.83;;;;;;;21.41;64.02;100774.03;5089585;28;20055;-62
2022/07/12 08:08:18;;;;;;;3.53;2.45;;;;;;;21.54;63.63;100780.00;5089657;28;20052;-60
2022/07/12 08:10:45;;;;;;;1.58;1.48;;;;;;;21.67;63.39;100770.88;5089540;28;20054;-61
2022/07/12 08:13:11;;;;;;;2.75;1.40;;;;;;;21.80;63.21;100773.38;5090987;28;20052;-63
2022/07/12 08:15:38;;;;;;;1.95;1.75;;;;;;;21.91;62.47;100775.94;5091045;28;20562;-62
2022/07/12 08:18:05;;;;;;;1.80;1.65;;;;;;;22.03;62.34;100771.31;5090713;28;20052;-61
2022/07/12 08:20:32;;;;;;;2.17;1.80;;;;;;;22.15;62.24;100769.34;5090616;28;20051;-60
2022/07/12 08:23:15;;;;;;;2.17;1.20;;;;;;;22.28;61.84;100769.09;5090619;28;20487;-61
2022/07/12 08:25:41;;;;;;;3.80;1.48;;;;;;;22.38;61.16;100767.25;5090633;28;20048;-61
2022/07/12 08:28:08;;;;;;;1.70;1.60;;;;;;;22.50;61.12;100756.41;5090649;28;20048;-64
2022/07/12 08:30:35;;;;;;;1.73;1.50;;;;;;;22.63;60.36;100758.81;5090586;28;20044;-62
2022/07/12 08:33:08;;;;;;;2.67;1.33;;;;;;;22.76;60.69;100758.50;5090732;28;20138;-66
2022/07/12 08:35:35;;;;;;;1.85;1.20;;;;;;;22.90;61.07;100762.59;5090478;28;20052;-63
2022/07/12 08:38:01;;;;;;;2.63;1.20;;;;;;;23.04;60.22;100766.69;5090896;28;20109;-62
2022/07/12 08:40:28;;;;;;;2.83;1.40;;;;;;;23.18;60.46;100776.13;5090702;28;20098;-63
2022/07/12 08:42:57;;;;;;;1.90;1.25;;;;;;;23.30;60.36;100774.94;5092349;28;20409;-63
2022/07/12 08:45:23;;;;;;;2.38;1.20;;;;;;;23.43;60.35;100779.16;5094787;28;20052;-63
2022/07/12 08:47:50;;;;;;;3.22;1.20;;;;;;;23.56;59.38;100779.69;5094586;28;20773;-62
2022/07/12 08:50:20;;;;;;;1.08;1.02;;;;;;;23.68;58.83;100772.28;5094060;28;20059;-63
2022/07/12 08:52:49;;;;;;;2.22;1.23;;;;;;;23.81;58.94;100779.16;5093474;28;20046;-64
2022/07/12 08:55:28;;;;;;;3.78;1.33;;;;;;;23.94;59.55;100781.50;5093308;28;20051;-63
2022/07/12 08:57:58;;;;;;;2.40;1.08;;;;;;;24.06;58.24;100774.91;5094448;28;20063;-64
2022/07/12 09:00:26;;;;;;;2.20;1.10;;;;;;;24.20;58.64;100775.41;5092730;28;20113;-62
2022/07/12 09:02:57;;;;;;;3.70;1.38;;;;;;;24.29;56.79;100779.03;5093022;28;20060;-65
2022/07/12 09:05:27;;;;;;;1.70;0.95;;;;;;;24.42;57.23;100774.13;5093124;28;20063;-62
2022/07/12 09:08:10;;;;;;;4.03;1.20;;;;;;;24.50;56.89;100784.13;5093162;28;20044;-62
2022/07/12 09:10:48;;;;;;;2.55;0.88;;;;;;;24.60;57.22;100778.66;5093051;28;20051;-62
2022/07/12 09:13:15;;;;;;;1.70;1.10;;;;;;;24.71;56.74;100778.41;5093996;28;20052;-65
2022/07/12 09:15:42;;;;;;;0.88;0.88;;;;;;;24.80;56.93;100775.78;5094322;28;20048;-62
2022/07/12 09:18:25;;;;;;;2.70;0.80;;;;;;;24.87;56.95;100776.03;5092816;28;20084;-64
2022/07/12 09:20:55;;;;;;;1.10;1.00;;;;;;;24.94;55.84;100769.88;5094098;28;20407;-62
2022/07/12 09:23:22;;;;;;;1.50;1.05;;;;;;;25.00;55.69;100771.06;5093954;28;20083;-63
2022/07/12 09:25:48;;;;;;;0.82;0.82;;;;;;;25.06;55.59;100762.38;5093837;28;20094;-62
2022/07/12 09:28:16;;;;;;;1.05;0.82;;;;;;;25.11;55.54;100762.72;5093679;28;20056;-65
2022/07/12 09:30:50;;;;;;;1.00;0.82;;;;;;;25.15;53.56;100767.81;5094085;28;20105;-63
2022/07/12 09:36:07;;;;;;;0.93;0.80;;;;;;;25.25;54.19;100765.84;5093594;28;20048;-71
2022/07/12 09:38:39;;;;;;;0.73;0.73;;;;;;;25.27;53.31;100774.63;5093593;28;20064;-64
2022/07/12 09:41:07;;;;;;;0.70;0.70;;;;;;;25.32;53.38;100769.59;5091990;28;20491;-64
2022/07/12 09:43:34;;;;;;;0.75;0.75;;;;;;;25.37;53.51;100771.78;5092993;28;20136;-64
2022/07/12 09:46:01;;;;;;;0.90;0.75;;;;;;;25.41;54.38;100767.78;5092514;28;20044;-62
2022/07/12 09:48:28;;;;;;;2.17;1.05;;;;;;;25.47;54.04;100764.44;5093014;28;20160;-65
2022/07/12 09:50:57;;;;;;;2.15;1.00;;;;;;;25.55;54.48;100766.34;5092091;28;20580;-63
2022/07/12 09:53:31;;;;;;;1.77;0.75;;;;;;;25.63;54.29;100757.47;5091592;28;20538;-65
2022/07/12 09:56:01;;;;;;;1.20;0.95;;;;;;;25.76;54.21;100759.72;5093524;28;20085;-62
2022/07/12 09:58:34;;;;;;;1.38;0.70;;;;;;;25.88;54.49;100760.25;5093111;28;20458;-61
2022/07/12 10:01:02;;;;;;;1.40;0.90;;;;;;;26.01;54.24;100759.75;5091407;28;20515;-63
2022/07/12 10:03:31;;;;;;;1.13;0.68;;;;;;;26.14;53.70;100754.75;5093003;28;20162;-62
2022/07/12 10:06:02;;;;;;;1.45;0.80;;;;;;;26.27;52.91;100758.84;5093342;28;20485;-63
2022/07/12 10:08:30;;;;;;;1.85;0.68;;;;;;;26.40;53.62;100764.56;5091826;28;20048;-61
2022/07/12 10:10:57;;;;;;;1.00;0.80;;;;;;;26.51;52.16;100763.41;5091971;28;20067;-63
2022/07/12 10:13:25;;;;;;;0.50;0.50;;;;;;;26.59;50.82;100757.19;5092985;28;20048;-61
2022/07/12 10:15:58;;;;;;;0.63;0.50;;;;;;;26.62;50.06;100759.56;5091802;28;20048;-62
2022/07/12 10:18:25;;;;;;;1.52;0.70;;;;;;;26.71;51.40;100762.22;5091618;28;20105;-64
2022/07/12 10:20:52;;;;;;;1.15;0.50;;;;;;;26.75;50.87;100756.31;5092938;28;20060;-62
2022/07/12 10:23:36;;;;;;;0.88;0.52;;;;;;;26.78;50.73;100758.69;5092867;28;20044;-63
2022/07/12 10:26:14;;;;;;;0.50;0.50;;;;;;;26.87;49.78;100764.91;5092645;28;20052;-62
2022/07/12 10:29:00;;;;;;;0.85;0.60;;;;;;;26.93;49.36;100761.56;5091430;28;20056;-63
2022/07/12 10:31:35;;;;;;;2.38;0.52;;;;;;;27.03;49.57;100755.97;5091334;28;20051;-64
2022/07/12 10:34:15;;;;;;;1.13;0.60;;;;;;;27.12;48.76;100754.09;5092468;28;20048;-61
2022/07/12 10:36:56;;;;;;;0.40;0.40;;;;;;;27.20;48.33;100745.13;5092558;28;20059;-62
2022/07/12 10:40:13;;;;;;;0.85;0.63;;;;;;;27.31;48.74;100746.63;5092107;28;20051;-66
2022/07/12 10:43:00;;;;;;;0.40;0.40;;;;;;;27.43;48.69;100739.81;5091274;28;20044;-63
2022/07/12 10:45:30;;;;;;;1.15;0.50;;;;;;;27.53;48.83;100739.59;5092537;28;20070;-64
2022/07/12 10:47:58;;;;;;;0.55;0.38;;;;;;;27.67;49.94;100738.06;5091025;28;20056;-64
2022/07/12 10:50:43;;;;;;;0.60;0.40;;;;;;;27.80;48.77;100734.78;5090907;28;20408;-62
2022/07/12 10:53:33;;;;;;;0.60;0.40;;;;;;;28.02;48.62;100732.28;5090935;28;20079;-65
2022/07/12 10:56:17;;;;;;;0.40;0.40;;;;;;;28.34;49.68;100730.38;5092321;28;20404;-63
2022/07/12 10:58:59;;;;;;;1.10;0.50;;;;;;;28.77;48.88;100739.00;5092036;28;20055;-63
2022/07/12 11:01:31;;;;;;;0.73;0.65;;;;;;;29.20;46.96;100743.81;5090729;28;20048;-62
2022/07/12 11:04:10;;;;;;;0.50;0.50;;;;;;;29.62;45.88;100738.75;5091294;28;20060;-62
2022/07/12 11:06:39;;;;;;;2.42;0.63;;;;;;;30.07;45.73;100726.94;5089802;28;20097;-63
2022/07/12 11:09:08;;;;;;;0.88;0.70;;;;;;;30.44;44.46;100733.16;5090531;28;20060;-63
2022/07/12 11:11:43;;;;;;;2.13;1.10;;;;;;;30.77;44.02;100726.34;5090593;28;20056;-62
2022/07/12 11:14:11;;;;;;;0.98;0.60;;;;;;;31.10;44.47;100720.28;5092147;28;20154;-65
2022/07/12 11:16:48;;;;;;;0.60;0.50;;;;;;;31.39;43.13;100712.91;5090623;28;20058;-64
2022/07/12 11:19:15;;;;;;;0.80;0.52;;;;;;;31.76;43.84;100715.34;5090354;28;20062;-63
2022/07/12 11:21:44;;;;;;;2.10;0.40;;;;;;;32.04;43.12;100713.53;5090603;28;20130;-62
2022/07/12 11:24:19;;;;;;;0.30;0.30;;;;;;;32.27;42.05;100710.44;5090313;28;20036;-62
2022/07/12 11:26:49;;;;;;;1.85;0.50;;;;;;;32.51;41.76;100710.84;5090363;28;20052;-64
2022/07/12 11:29:16;;;;;;;0.50;0.50;;;;;;;32.74;41.89;100721.31;5090163;28;20101;-65
2022/07/12 11:31:44;;;;;;;0.20;0.20;;;;;;;33.02;40.97;100716.69;5090051;28;20044;-63
2022/07/12 11:34:25;;;;;;;1.27;0.40;;;;;;;33.31;41.10;100713.66;5091403;28;20746;-63
2022/07/12 11:36:57;;;;;;;0.60;0.40;;;;;;;33.64;39.28;100709.97;5090087;28;20048;-62
2022/07/12 11:39:40;;;;;;;0.38;0.30;;;;;;;33.90;39.45;100705.41;5090178;28;20056;-63